sensor_id;sensor_type;location;lat;lon;timestamp;temperature;humidity
10304;DHT22;5197;48.152;8.590;2024-01-27T00:00:32;4.50;21.20
10304;DHT22;5197;48.152;8.590;2024-01-27T00:02:59;4.40;20.90
10304;DHT22;5197;48.152;8.590;2024-01-27T00:05:26;4.40;20.90
10304;DHT22;5197;48.152;8.590;2024-01-27T00:07:57;4.40;20.80
10304;DHT22;5197;48.152;8.590;2024-01-27T00:10:24;4.20;19.80
10304;DHT22;5197;48.152;8.590;2024-01-27T00:12:51;4.00;19.70
10304;DHT22;5197;48.152;8.590;2024-01-27T00:15:18;3.90;20.70
10304;DHT22;5197;48.152;8.590;2024-01-27T00:17:46;3.70;20.90
10304;DHT22;5197;48.152;8.590;2024-01-27T00:20:13;3.70;21.30
10304;DHT22;5197;48.152;8.590;2024-01-27T00:22:40;3.60;21.30
10304;DHT22;5197;48.152;8.590;2024-01-27T00:25:07;3.50;21.60
10304;DHT22;5197;48.152;8.590;2024-01-27T00:27:34;3.40;21.70
10304;DHT22;5197;48.152;8.590;2024-01-27T00:30:01;3.40;22.00
10304;DHT22;5197;48.152;8.590;2024-01-27T00:32:28;3.30;22.00
10304;DHT22;5197;48.152;8.590;2024-01-27T00:34:55;3.30;22.10
10304;DHT22;5197;48.152;8.590;2024-01-27T00:37:22;3.30;22.20
10304;DHT22;5197;48.152;8.590;2024-01-27T00:39:50;3.30;22.30
10304;DHT22;5197;48.152;8.590;2024-01-27T00:42:17;3.30;22.40
10304;DHT22;5197;48.152;8.590;2024-01-27T00:44:46;3.30;22.20
10304;DHT22;5197;48.152;8.590;2024-01-27T00:47:13;3.20;21.60
10304;DHT22;5197;48.152;8.590;2024-01-27T00:49:40;3.20;21.30
10304;DHT22;5197;48.152;8.590;2024-01-27T00:52:07;3.10;21.20
10304;DHT22;5197;48.152;8.590;2024-01-27T00:54:34;3.00;21.30
10304;DHT22;5197;48.152;8.590;2024-01-27T00:57:01;3.00;21.50
10304;DHT22;5197;48.152;8.590;2024-01-27T00:59:28;3.00;21.60
10304;DHT22;5197;48.152;8.590;2024-01-27T01:01:55;3.10;21.60
10304;DHT22;5197;48.152;8.590;2024-01-27T01:04:23;3.10;22.40
10304;DHT22;5197;48.152;8.590;2024-01-27T01:06:50;3.00;21.20
10304;DHT22;5197;48.152;8.590;2024-01-27T01:09:17;3.00;21.20
10304;DHT22;5197;48.152;8.590;2024-01-27T01:11:44;3.00;21.20
10304;DHT22;5197;48.152;8.590;2024-01-27T01:14:11;3.00;21.20
10304;DHT22;5197;48.152;8.590;2024-01-27T01:16:38;3.00;21.30
10304;DHT22;5197;48.152;8.590;2024-01-27T01:19:06;3.00;21.20
10304;DHT22;5197;48.152;8.590;2024-01-27T01:21:33;3.10;21.30
10304;DHT22;5197;48.152;8.590;2024-01-27T01:24:00;3.10;21.20
10304;DHT22;5197;48.152;8.590;2024-01-27T01:26:27;3.10;21.00
10304;DHT22;5197;48.152;8.590;2024-01-27T01:28:54;3.10;20.60
10304;DHT22;5197;48.152;8.590;2024-01-27T01:31:21;3.00;20.20
10304;DHT22;5197;48.152;8.590;2024-01-27T01:33:48;3.00;20.10
10304;DHT22;5197;48.152;8.590;2024-01-27T01:36:16;2.90;20.10
10304;DHT22;5197;48.152;8.590;2024-01-27T01:38:43;2.90;20.30
10304;DHT22;5197;48.152;8.590;2024-01-27T01:41:10;2.90;20.30
10304;DHT22;5197;48.152;8.590;2024-01-27T01:43:37;2.80;20.30
10304;DHT22;5197;48.152;8.590;2024-01-27T01:46:04;2.80;20.40
10304;DHT22;5197;48.152;8.590;2024-01-27T01:48:32;2.80;20.60
10304;DHT22;5197;48.152;8.590;2024-01-27T01:51:00;2.80;20.50
10304;DHT22;5197;48.152;8.590;2024-01-27T01:53:28;2.70;20.00
10304;DHT22;5197;48.152;8.590;2024-01-27T01:55:55;2.60;20.10
10304;DHT22;5197;48.152;8.590;2024-01-27T01:58:22;2.60;20.10
10304;DHT22;5197;48.152;8.590;2024-01-27T02:00:49;2.60;20.10
10304;DHT22;5197;48.152;8.590;2024-01-27T02:03:17;2.50;20.00
10304;DHT22;5197;48.152;8.590;2024-01-27T02:05:44;2.50;20.10
10304;DHT22;5197;48.152;8.590;2024-01-27T02:08:11;2.50;20.70
10304;DHT22;5197;48.152;8.590;2024-01-27T02:10:38;2.50;21.00
10304;DHT22;5197;48.152;8.590;2024-01-27T02:13:22;2.50;21.00
10304;DHT22;5197;48.152;8.590;2024-01-27T02:15:50;2.50;20.60
10304;DHT22;5197;48.152;8.590;2024-01-27T02:18:17;2.40;19.50
10304;DHT22;5197;48.152;8.590;2024-01-27T02:20:45;2.30;20.10
10304;DHT22;5197;48.152;8.590;2024-01-27T02:23:12;2.30;20.70
10304;DHT22;5197;48.152;8.590;2024-01-27T02:25:43;2.20;20.30
10304;DHT22;5197;48.152;8.590;2024-01-27T02:28:10;2.20;20.80
10304;DHT22;5197;48.152;8.590;2024-01-27T02:30:39;2.10;21.20
10304;DHT22;5197;48.152;8.590;2024-01-27T02:33:06;2.10;21.00
10304;DHT22;5197;48.152;8.590;2024-01-27T02:35:34;2.10;20.80
10304;DHT22;5197;48.152;8.590;2024-01-27T02:38:01;2.00;21.00
10304;DHT22;5197;48.152;8.590;2024-01-27T02:40:28;2.00;22.10
10304;DHT22;5197;48.152;8.590;2024-01-27T02:42:55;2.00;21.20
10304;DHT22;5197;48.152;8.590;2024-01-27T02:45:22;2.00;21.40
10304;DHT22;5197;48.152;8.590;2024-01-27T02:47:49;2.00;20.90
10304;DHT22;5197;48.152;8.590;2024-01-27T02:50:17;1.90;21.00
10304;DHT22;5197;48.152;8.590;2024-01-27T02:52:44;1.90;21.10
10304;DHT22;5197;48.152;8.590;2024-01-27T02:55:11;1.90;20.80
10304;DHT22;5197;48.152;8.590;2024-01-27T02:57:40;1.90;21.00
10304;DHT22;5197;48.152;8.590;2024-01-27T03:00:07;1.80;21.20
10304;DHT22;5197;48.152;8.590;2024-01-27T03:02:35;1.80;21.00
10304;DHT22;5197;48.152;8.590;2024-01-27T03:05:02;1.80;21.20
10304;DHT22;5197;48.152;8.590;2024-01-27T03:07:29;1.80;21.00
10304;DHT22;5197;48.152;8.590;2024-01-27T03:09:56;1.80;21.10
10304;DHT22;5197;48.152;8.590;2024-01-27T03:12:23;1.80;21.00
10304;DHT22;5197;48.152;8.590;2024-01-27T03:14:50;1.80;20.90
10304;DHT22;5197;48.152;8.590;2024-01-27T03:17:18;1.80;20.50
10304;DHT22;5197;48.152;8.590;2024-01-27T03:19:45;1.80;20.10
10304;DHT22;5197;48.152;8.590;2024-01-27T03:22:15;1.70;20.00
10304;DHT22;5197;48.152;8.590;2024-01-27T03:24:42;1.70;20.10
10304;DHT22;5197;48.152;8.590;2024-01-27T03:27:09;1.60;20.00
10304;DHT22;5197;48.152;8.590;2024-01-27T03:29:37;1.60;20.10
10304;DHT22;5197;48.152;8.590;2024-01-27T03:32:04;1.50;20.10
10304;DHT22;5197;48.152;8.590;2024-01-27T03:34:32;1.50;20.30
10304;DHT22;5197;48.152;8.590;2024-01-27T03:36:59;1.50;20.30
10304;DHT22;5197;48.152;8.590;2024-01-27T03:39:26;1.40;20.20
10304;DHT22;5197;48.152;8.590;2024-01-27T03:41:53;1.40;19.90
10304;DHT22;5197;48.152;8.590;2024-01-27T03:44:21;1.40;19.90
10304;DHT22;5197;48.152;8.590;2024-01-27T03:46:47;1.30;19.80
10304;DHT22;5197;48.152;8.590;2024-01-27T03:49:15;1.30;20.00
10304;DHT22;5197;48.152;8.590;2024-01-27T03:51:42;1.30;19.80
10304;DHT22;5197;48.152;8.590;2024-01-27T03:54:09;1.30;19.70
10304;DHT22;5197;48.152;8.590;2024-01-27T03:56:36;1.30;19.60
10304;DHT22;5197;48.152;8.590;2024-01-27T03:59:03;1.30;20.80
10304;DHT22;5197;48.152;8.590;2024-01-27T04:01:32;1.30;19.90
10304;DHT22;5197;48.152;8.590;2024-01-27T04:03:59;1.20;19.80
10304;DHT22;5197;48.152;8.590;2024-01-27T04:06:26;1.20;19.30
10304;DHT22;5197;48.152;8.590;2024-01-27T04:08:53;1.10;19.20
10304;DHT22;5197;48.152;8.590;2024-01-27T04:11:23;1.10;19.60
10304;DHT22;5197;48.152;8.590;2024-01-27T04:13:50;1.10;19.70
10304;DHT22;5197;48.152;8.590;2024-01-27T04:16:17;1.00;19.70
10304;DHT22;5197;48.152;8.590;2024-01-27T04:18:46;1.00;19.90
10304;DHT22;5197;48.152;8.590;2024-01-27T04:21:13;1.00;19.70
10304;DHT22;5197;48.152;8.590;2024-01-27T04:23:40;0.90;19.30
10304;DHT22;5197;48.152;8.590;2024-01-27T04:26:07;0.80;19.30
10304;DHT22;5197;48.152;8.590;2024-01-27T04:28:36;0.70;19.50
10304;DHT22;5197;48.152;8.590;2024-01-27T04:31:04;0.70;19.80
10304;DHT22;5197;48.152;8.590;2024-01-27T04:33:31;-0.70;19.10
10304;DHT22;5197;48.152;8.590;2024-01-27T04:35:59;0.70;20.10
10304;DHT22;5197;48.152;8.590;2024-01-27T04:38:26;0.70;19.60
10304;DHT22;5197;48.152;8.590;2024-01-27T04:40:53;0.70;19.50
10304;DHT22;5197;48.152;8.590;2024-01-27T04:43:20;0.60;19.50
10304;DHT22;5197;48.152;8.590;2024-01-27T04:45:47;0.60;19.70
10304;DHT22;5197;48.152;8.590;2024-01-27T04:48:16;0.60;19.70
10304;DHT22;5197;48.152;8.590;2024-01-27T04:50:43;0.50;19.70
10304;DHT22;5197;48.152;8.590;2024-01-27T04:53:11;0.50;19.80
10304;DHT22;5197;48.152;8.590;2024-01-27T04:55:38;0.50;19.70
10304;DHT22;5197;48.152;8.590;2024-01-27T04:58:07;0.50;20.80
10304;DHT22;5197;48.152;8.590;2024-01-27T05:00:34;0.40;19.80
10304;DHT22;5197;48.152;8.590;2024-01-27T05:03:01;0.40;19.90
10304;DHT22;5197;48.152;8.590;2024-01-27T05:05:31;0.50;20.00
10304;DHT22;5197;48.152;8.590;2024-01-27T05:08:03;0.40;19.60
10304;DHT22;5197;48.152;8.590;2024-01-27T05:10:30;0.30;19.50
10304;DHT22;5197;48.152;8.590;2024-01-27T05:12:57;0.30;19.80
10304;DHT22;5197;48.152;8.590;2024-01-27T05:15:24;0.20;19.90
10304;DHT22;5197;48.152;8.590;2024-01-27T05:17:51;0.30;20.20
10304;DHT22;5197;48.152;8.590;2024-01-27T05:20:18;0.20;20.20
10304;DHT22;5197;48.152;8.590;2024-01-27T05:22:46;0.20;20.20
10304;DHT22;5197;48.152;8.590;2024-01-27T05:25:13;0.20;20.30
10304;DHT22;5197;48.152;8.590;2024-01-27T05:27:40;0.20;20.60
10304;DHT22;5197;48.152;8.590;2024-01-27T05:30:08;0.30;19.80
10304;DHT22;5197;48.152;8.590;2024-01-27T05:32:35;0.30;20.70
10304;DHT22;5197;48.152;8.590;2024-01-27T05:35:03;0.30;20.50
10304;DHT22;5197;48.152;8.590;2024-01-27T05:37:32;0.30;19.90
10304;DHT22;5197;48.152;8.590;2024-01-27T05:39:59;0.20;19.30
10304;DHT22;5197;48.152;8.590;2024-01-27T05:42:26;0.20;18.80
10304;DHT22;5197;48.152;8.590;2024-01-27T05:44:53;0.10;18.70
10304;DHT22;5197;48.152;8.590;2024-01-27T05:47:21;0.00;18.80
10304;DHT22;5197;48.152;8.590;2024-01-27T05:49:48;-0.10;18.80
10304;DHT22;5197;48.152;8.590;2024-01-27T05:52:15;-0.20;19.30
10304;DHT22;5197;48.152;8.590;2024-01-27T05:54:52;-0.20;19.70
10304;DHT22;5197;48.152;8.590;2024-01-27T05:57:19;-0.30;20.00
10304;DHT22;5197;48.152;8.590;2024-01-27T05:59:46;-0.20;20.10
10304;DHT22;5197;48.152;8.590;2024-01-27T06:02:14;-0.30;20.10
10304;DHT22;5197;48.152;8.590;2024-01-27T06:04:41;-0.40;20.10
10304;DHT22;5197;48.152;8.590;2024-01-27T06:07:08;-0.40;20.30
10304;DHT22;5197;48.152;8.590;2024-01-27T06:09:37;-0.40;20.70
10304;DHT22;5197;48.152;8.590;2024-01-27T06:12:05;-0.50;20.70
10304;DHT22;5197;48.152;8.590;2024-01-27T06:14:32;-0.50;21.10
10304;DHT22;5197;48.152;8.590;2024-01-27T06:17:00;-0.50;21.50
10304;DHT22;5197;48.152;8.590;2024-01-27T06:19:27;-0.50;21.20
10304;DHT22;5197;48.152;8.590;2024-01-27T06:21:54;-0.60;21.10
10304;DHT22;5197;48.152;8.590;2024-01-27T06:24:22;-0.70;21.30
10304;DHT22;5197;48.152;8.590;2024-01-27T06:26:49;-0.70;21.50
10304;DHT22;5197;48.152;8.590;2024-01-27T06:29:16;-0.70;21.80
10304;DHT22;5197;48.152;8.590;2024-01-27T06:31:45;-0.70;22.20
10304;DHT22;5197;48.152;8.590;2024-01-27T06:34:12;-0.70;22.10
10304;DHT22;5197;48.152;8.590;2024-01-27T06:36:40;-0.70;22.30
10304;DHT22;5197;48.152;8.590;2024-01-27T06:39:07;-0.60;22.20
10304;DHT22;5197;48.152;8.590;2024-01-27T06:41:35;-0.60;22.30
10304;DHT22;5197;48.152;8.590;2024-01-27T06:44:02;-0.50;22.20
10304;DHT22;5197;48.152;8.590;2024-01-27T06:46:30;-0.50;22.10
10304;DHT22;5197;48.152;8.590;2024-01-27T06:48:57;-0.40;22.10
10304;DHT22;5197;48.152;8.590;2024-01-27T06:51:24;-0.40;22.10
10304;DHT22;5197;48.152;8.590;2024-01-27T06:53:51;-0.40;22.00
10304;DHT22;5197;48.152;8.590;2024-01-27T06:56:18;-0.30;22.10
10304;DHT22;5197;48.152;8.590;2024-01-27T06:58:45;-0.30;22.10
10304;DHT22;5197;48.152;8.590;2024-01-27T07:01:12;-0.30;22.10
10304;DHT22;5197;48.152;8.590;2024-01-27T07:03:39;-0.20;22.10
10304;DHT22;5197;48.152;8.590;2024-01-27T07:06:08;-0.10;22.10
10304;DHT22;5197;48.152;8.590;2024-01-27T07:08:36;-0.20;21.90
10304;DHT22;5197;48.152;8.590;2024-01-27T07:11:04;-0.20;21.60
10304;DHT22;5197;48.152;8.590;2024-01-27T07:13:32;-0.20;21.60
10304;DHT22;5197;48.152;8.590;2024-01-27T07:15:59;-0.30;21.60
10304;DHT22;5197;48.152;8.590;2024-01-27T07:18:26;-0.30;21.80
10304;DHT22;5197;48.152;8.590;2024-01-27T07:20:54;-0.30;21.90
10304;DHT22;5197;48.152;8.590;2024-01-27T07:23:22;-0.30;22.10
10304;DHT22;5197;48.152;8.590;2024-01-27T07:25:48;-0.40;22.00
10304;DHT22;5197;48.152;8.590;2024-01-27T07:28:15;-0.40;22.10
10304;DHT22;5197;48.152;8.590;2024-01-27T07:30:46;-0.40;22.30
10304;DHT22;5197;48.152;8.590;2024-01-27T07:33:13;-0.40;22.30
10304;DHT22;5197;48.152;8.590;2024-01-27T07:35:40;-0.40;22.20
10304;DHT22;5197;48.152;8.590;2024-01-27T07:38:07;-0.40;22.20
10304;DHT22;5197;48.152;8.590;2024-01-27T07:40:35;-0.50;22.10
10304;DHT22;5197;48.152;8.590;2024-01-27T07:43:02;-0.60;22.20
10304;DHT22;5197;48.152;8.590;2024-01-27T07:45:30;-0.70;22.10
10304;DHT22;5197;48.152;8.590;2024-01-27T07:47:57;-0.70;22.90
10304;DHT22;5197;48.152;8.590;2024-01-27T07:50:27;-0.70;23.40
10304;DHT22;5197;48.152;8.590;2024-01-27T07:52:54;-0.70;24.00
10304;DHT22;5197;48.152;8.590;2024-01-27T07:55:21;-0.70;24.20
10304;DHT22;5197;48.152;8.590;2024-01-27T07:57:49;-0.60;24.40
10304;DHT22;5197;48.152;8.590;2024-01-27T08:00:16;-0.60;22.90
10304;DHT22;5197;48.152;8.590;2024-01-27T08:02:43;-0.50;24.00
10304;DHT22;5197;48.152;8.590;2024-01-27T08:05:10;-0.50;23.70
10304;DHT22;5197;48.152;8.590;2024-01-27T08:07:37;-0.60;23.80
10304;DHT22;5197;48.152;8.590;2024-01-27T08:10:05;-0.60;24.00
10304;DHT22;5197;48.152;8.590;2024-01-27T08:12:33;-0.60;23.80
10304;DHT22;5197;48.152;8.590;2024-01-27T08:15:00;-0.60;24.10
10304;DHT22;5197;48.152;8.590;2024-01-27T08:17:27;-0.60;24.50
10304;DHT22;5197;48.152;8.590;2024-01-27T08:19:54;-0.30;25.30
10304;DHT22;5197;48.152;8.590;2024-01-27T08:22:21;-0.50;25.40
10304;DHT22;5197;48.152;8.590;2024-01-27T08:24:48;-0.40;25.50
10304;DHT22;5197;48.152;8.590;2024-01-27T08:27:15;-0.30;25.30
10304;DHT22;5197;48.152;8.590;2024-01-27T08:29:42;-0.30;25.20
10304;DHT22;5197;48.152;8.590;2024-01-27T08:32:10;-0.30;24.90
10304;DHT22;5197;48.152;8.590;2024-01-27T08:34:37;-0.30;25.10
10304;DHT22;5197;48.152;8.590;2024-01-27T08:37:14;-0.30;25.60
10304;DHT22;5197;48.152;8.590;2024-01-27T08:39:43;-0.20;25.70
10304;DHT22;5197;48.152;8.590;2024-01-27T08:42:10;-0.20;26.00
10304;DHT22;5197;48.152;8.590;2024-01-27T08:44:38;-0.10;26.30
10304;DHT22;5197;48.152;8.590;2024-01-27T08:47:05;0.00;26.30
10304;DHT22;5197;48.152;8.590;2024-01-27T08:49:34;0.10;26.30
10304;DHT22;5197;48.152;8.590;2024-01-27T08:52:01;0.10;26.40
10304;DHT22;5197;48.152;8.590;2024-01-27T08:54:28;0.20;26.50
10304;DHT22;5197;48.152;8.590;2024-01-27T08:56:56;0.20;26.80
10304;DHT22;5197;48.152;8.590;2024-01-27T08:59:23;0.30;27.20
10304;DHT22;5197;48.152;8.590;2024-01-27T09:01:50;0.40;27.30
10304;DHT22;5197;48.152;8.590;2024-01-27T09:04:17;0.50;27.50
10304;DHT22;5197;48.152;8.590;2024-01-27T09:06:45;0.60;27.30
10304;DHT22;5197;48.152;8.590;2024-01-27T09:09:12;0.60;26.70
10304;DHT22;5197;48.152;8.590;2024-01-27T09:11:39;0.60;27.40
10304;DHT22;5197;48.152;8.590;2024-01-27T09:14:06;0.60;26.80
10304;DHT22;5197;48.152;8.590;2024-01-27T09:16:34;0.60;27.30
10304;DHT22;5197;48.152;8.590;2024-01-27T09:19:01;0.60;27.90
10304;DHT22;5197;48.152;8.590;2024-01-27T09:21:29;0.70;28.10
10304;DHT22;5197;48.152;8.590;2024-01-27T09:23:58;0.70;27.90
10304;DHT22;5197;48.152;8.590;2024-01-27T09:26:26;0.70;28.60
10304;DHT22;5197;48.152;8.590;2024-01-27T09:28:53;0.70;29.10
10304;DHT22;5197;48.152;8.590;2024-01-27T09:31:25;0.70;28.90
10304;DHT22;5197;48.152;8.590;2024-01-27T09:33:53;0.70;29.00
10304;DHT22;5197;48.152;8.590;2024-01-27T09:36:21;0.80;29.40
10304;DHT22;5197;48.152;8.590;2024-01-27T09:38:49;0.80;29.70
10304;DHT22;5197;48.152;8.590;2024-01-27T09:41:17;0.90;30.20
10304;DHT22;5197;48.152;8.590;2024-01-27T09:43:46;0.90;30.00
10304;DHT22;5197;48.152;8.590;2024-01-27T09:46:15;0.90;29.40
10304;DHT22;5197;48.152;8.590;2024-01-27T09:48:42;0.90;29.20
10304;DHT22;5197;48.152;8.590;2024-01-27T09:51:10;0.90;29.40
10304;DHT22;5197;48.152;8.590;2024-01-27T09:53:37;0.80;29.20
10304;DHT22;5197;48.152;8.590;2024-01-27T09:56:06;0.80;29.40
10304;DHT22;5197;48.152;8.590;2024-01-27T09:58:33;0.80;29.50
10304;DHT22;5197;48.152;8.590;2024-01-27T10:01:01;0.80;29.90
10304;DHT22;5197;48.152;8.590;2024-01-27T10:03:30;0.80;30.30
10304;DHT22;5197;48.152;8.590;2024-01-27T10:05:57;0.90;31.10
10304;DHT22;5197;48.152;8.590;2024-01-27T10:08:27;1.00;31.00
10304;DHT22;5197;48.152;8.590;2024-01-27T10:10:57;1.10;31.00
10304;DHT22;5197;48.152;8.590;2024-01-27T10:13:24;1.20;31.20
10304;DHT22;5197;48.152;8.590;2024-01-27T10:16:04;1.30;31.70
10304;DHT22;5197;48.152;8.590;2024-01-27T10:18:32;1.30;30.70
10304;DHT22;5197;48.152;8.590;2024-01-27T10:21:05;1.30;29.60
10304;DHT22;5197;48.152;8.590;2024-01-27T10:23:39;1.20;29.40
10304;DHT22;5197;48.152;8.590;2024-01-27T10:26:10;1.20;29.60
10304;DHT22;5197;48.152;8.590;2024-01-27T10:28:38;1.20;29.90
10304;DHT22;5197;48.152;8.590;2024-01-27T10:31:12;1.20;29.70
10304;DHT22;5197;48.152;8.590;2024-01-27T10:33:39;1.20;29.80
10304;DHT22;5197;48.152;8.590;2024-01-27T10:36:07;1.20;30.00
10304;DHT22;5197;48.152;8.590;2024-01-27T10:38:38;1.10;30.00
10304;DHT22;5197;48.152;8.590;2024-01-27T10:41:09;1.20;31.00
10304;DHT22;5197;48.152;8.590;2024-01-27T10:43:40;1.30;31.30
10304;DHT22;5197;48.152;8.590;2024-01-27T10:46:08;1.40;31.40
10304;DHT22;5197;48.152;8.590;2024-01-27T10:48:35;1.50;31.50
10304;DHT22;5197;48.152;8.590;2024-01-27T10:51:07;1.60;31.20
10304;DHT22;5197;48.152;8.590;2024-01-27T10:53:36;1.70;31.10
10304;DHT22;5197;48.152;8.590;2024-01-27T10:56:04;1.80;30.80
10304;DHT22;5197;48.152;8.590;2024-01-27T10:58:36;1.90;30.00
10304;DHT22;5197;48.152;8.590;2024-01-27T11:01:11;1.90;29.70
10304;DHT22;5197;48.152;8.590;2024-01-27T11:03:39;1.90;29.60
10304;DHT22;5197;48.152;8.590;2024-01-27T11:06:07;2.00;29.70
10304;DHT22;5197;48.152;8.590;2024-01-27T11:08:36;2.00;30.00
10304;DHT22;5197;48.152;8.590;2024-01-27T11:11:10;2.20;30.00
10304;DHT22;5197;48.152;8.590;2024-01-27T11:13:37;2.30;30.10
10304;DHT22;5197;48.152;8.590;2024-01-27T11:16:07;2.30;30.00
10304;DHT22;5197;48.152;8.590;2024-01-27T11:18:42;2.40;30.00
10304;DHT22;5197;48.152;8.590;2024-01-27T11:21:16;2.50;30.30
10304;DHT22;5197;48.152;8.590;2024-01-27T11:23:44;2.70;30.40
10304;DHT22;5197;48.152;8.590;2024-01-27T11:26:22;2.80;30.30
10304;DHT22;5197;48.152;8.590;2024-01-27T11:28:50;2.90;31.50
10304;DHT22;5197;48.152;8.590;2024-01-27T11:31:18;3.10;30.00
10304;DHT22;5197;48.152;8.590;2024-01-27T11:33:51;3.20;30.10
10304;DHT22;5197;48.152;8.590;2024-01-27T11:36:23;3.20;30.10
10304;DHT22;5197;48.152;8.590;2024-01-27T11:38:52;3.30;30.00
10304;DHT22;5197;48.152;8.590;2024-01-27T11:41:26;3.50;30.10
10304;DHT22;5197;48.152;8.590;2024-01-27T11:43:58;3.60;30.00
10304;DHT22;5197;48.152;8.590;2024-01-27T11:46:26;3.70;30.00
10304;DHT22;5197;48.152;8.590;2024-01-27T11:48:53;3.80;30.40
10304;DHT22;5197;48.152;8.590;2024-01-27T11:51:21;3.90;30.50
10304;DHT22;5197;48.152;8.590;2024-01-27T11:53:50;4.00;30.70
10304;DHT22;5197;48.152;8.590;2024-01-27T11:56:17;4.10;30.50
10304;DHT22;5197;48.152;8.590;2024-01-27T11:58:49;4.10;30.50
10304;DHT22;5197;48.152;8.590;2024-01-27T12:01:17;4.20;30.20
10304;DHT22;5197;48.152;8.590;2024-01-27T12:03:45;4.20;30.00
10304;DHT22;5197;48.152;8.590;2024-01-27T12:06:13;4.30;30.00
10304;DHT22;5197;48.152;8.590;2024-01-27T12:08:42;4.30;29.90
10304;DHT22;5197;48.152;8.590;2024-01-27T12:11:16;4.40;29.80
10304;DHT22;5197;48.152;8.590;2024-01-27T12:13:49;4.40;29.10
10304;DHT22;5197;48.152;8.590;2024-01-27T12:16:16;4.40;29.30
10304;DHT22;5197;48.152;8.590;2024-01-27T12:18:46;4.40;29.10
10304;DHT22;5197;48.152;8.590;2024-01-27T12:21:19;4.40;29.20
10304;DHT22;5197;48.152;8.590;2024-01-27T12:23:53;4.50;29.10
10304;DHT22;5197;48.152;8.590;2024-01-27T12:26:29;4.50;28.80
10304;DHT22;5197;48.152;8.590;2024-01-27T12:28:57;4.60;28.80
10304;DHT22;5197;48.152;8.590;2024-01-27T12:31:27;4.70;28.40
10304;DHT22;5197;48.152;8.590;2024-01-27T12:33:56;4.70;27.80
10304;DHT22;5197;48.152;8.590;2024-01-27T12:36:26;4.80;27.10
10304;DHT22;5197;48.152;8.590;2024-01-27T12:41:22;4.90;25.80
10304;DHT22;5197;48.152;8.590;2024-01-27T12:43:49;5.00;24.90
10304;DHT22;5197;48.152;8.590;2024-01-27T12:46:16;5.10;23.90
10304;DHT22;5197;48.152;8.590;2024-01-27T12:48:44;5.20;22.80
10304;DHT22;5197;48.152;8.590;2024-01-27T12:51:12;5.20;22.10
10304;DHT22;5197;48.152;8.590;2024-01-27T12:53:41;5.20;21.20
10304;DHT22;5197;48.152;8.590;2024-01-27T12:56:11;5.30;19.90
10304;DHT22;5197;48.152;8.590;2024-01-27T12:58:39;5.40;18.60
10304;DHT22;5197;48.152;8.590;2024-01-27T13:01:07;5.40;18.60
10304;DHT22;5197;48.152;8.590;2024-01-27T13:03:35;5.50;18.60
10304;DHT22;5197;48.152;8.590;2024-01-27T13:06:03;5.50;18.60
10304;DHT22;5197;48.152;8.590;2024-01-27T13:08:30;5.60;18.70
10304;DHT22;5197;48.152;8.590;2024-01-27T13:10:58;5.70;18.80
10304;DHT22;5197;48.152;8.590;2024-01-27T13:13:25;5.70;18.80
10304;DHT22;5197;48.152;8.590;2024-01-27T13:15:52;5.70;18.90
10304;DHT22;5197;48.152;8.590;2024-01-27T13:18:20;5.80;19.30
10304;DHT22;5197;48.152;8.590;2024-01-27T13:20:48;5.80;18.30
10304;DHT22;5197;48.152;8.590;2024-01-27T13:23:15;5.80;18.30
10304;DHT22;5197;48.152;8.590;2024-01-27T13:25:42;5.80;17.70
10304;DHT22;5197;48.152;8.590;2024-01-27T13:28:23;5.80;17.70
10304;DHT22;5197;48.152;8.590;2024-01-27T13:30:50;5.80;18.10
10304;DHT22;5197;48.152;8.590;2024-01-27T13:33:17;5.80;18.20
10304;DHT22;5197;48.152;8.590;2024-01-27T13:35:44;5.80;17.70
10304;DHT22;5197;48.152;8.590;2024-01-27T13:38:14;4.60;16.10
10304;DHT22;5197;48.152;8.590;2024-01-27T13:40:42;5.80;16.50
10304;DHT22;5197;48.152;8.590;2024-01-27T13:43:09;5.80;16.50
10304;DHT22;5197;48.152;8.590;2024-01-27T13:45:36;5.80;16.50
10304;DHT22;5197;48.152;8.590;2024-01-27T13:48:03;5.80;16.10
10304;DHT22;5197;48.152;8.590;2024-01-27T13:50:30;5.90;15.80
10304;DHT22;5197;48.152;8.590;2024-01-27T13:52:59;5.90;14.70
10304;DHT22;5197;48.152;8.590;2024-01-27T13:55:26;5.90;14.70
10304;DHT22;5197;48.152;8.590;2024-01-27T13:57:53;5.80;14.60
10304;DHT22;5197;48.152;8.590;2024-01-27T14:00:20;5.90;14.50
10304;DHT22;5197;48.152;8.590;2024-01-27T14:02:48;5.90;14.10
10304;DHT22;5197;48.152;8.590;2024-01-27T14:05:15;5.90;13.90
10304;DHT22;5197;48.152;8.590;2024-01-27T14:07:42;5.90;14.00
10304;DHT22;5197;48.152;8.590;2024-01-27T14:10:09;5.90;14.00
10304;DHT22;5197;48.152;8.590;2024-01-27T14:12:36;5.90;13.80
10304;DHT22;5197;48.152;8.590;2024-01-27T14:15:04;6.00;13.00
10304;DHT22;5197;48.152;8.590;2024-01-27T14:17:35;6.00;12.40
10304;DHT22;5197;48.152;8.590;2024-01-27T14:20:03;6.00;12.20
10304;DHT22;5197;48.152;8.590;2024-01-27T14:22:31;6.00;12.00
10304;DHT22;5197;48.152;8.590;2024-01-27T14:24:58;6.00;12.10
10304;DHT22;5197;48.152;8.590;2024-01-27T14:27:26;6.00;12.50
10304;DHT22;5197;48.152;8.590;2024-01-27T14:29:54;6.10;12.70
10304;DHT22;5197;48.152;8.590;2024-01-27T14:32:21;6.10;12.50
10304;DHT22;5197;48.152;8.590;2024-01-27T14:34:49;6.10;12.80
10304;DHT22;5197;48.152;8.590;2024-01-27T14:37:16;6.10;12.90
10304;DHT22;5197;48.152;8.590;2024-01-27T14:39:44;6.10;12.90
10304;DHT22;5197;48.152;8.590;2024-01-27T14:42:13;6.10;13.30
10304;DHT22;5197;48.152;8.590;2024-01-27T14:44:40;6.10;13.70
10304;DHT22;5197;48.152;8.590;2024-01-27T14:47:09;6.10;14.00
10304;DHT22;5197;48.152;8.590;2024-01-27T14:49:37;6.10;14.30
10304;DHT22;5197;48.152;8.590;2024-01-27T14:52:06;6.00;14.40
10304;DHT22;5197;48.152;8.590;2024-01-27T14:54:34;6.00;14.60
10304;DHT22;5197;48.152;8.590;2024-01-27T14:57:05;5.90;15.00
10304;DHT22;5197;48.152;8.590;2024-01-27T14:59:32;5.90;15.40
10304;DHT22;5197;48.152;8.590;2024-01-27T15:02:00;5.90;15.80
10304;DHT22;5197;48.152;8.590;2024-01-27T15:04:26;5.80;16.10
10304;DHT22;5197;48.152;8.590;2024-01-27T15:06:55;5.80;16.20
10304;DHT22;5197;48.152;8.590;2024-01-27T15:09:22;5.80;16.20
10304;DHT22;5197;48.152;8.590;2024-01-27T15:11:50;5.70;16.30
10304;DHT22;5197;48.152;8.590;2024-01-27T15:14:17;5.60;16.40
10304;DHT22;5197;48.152;8.590;2024-01-27T15:16:48;5.60;16.40
10304;DHT22;5197;48.152;8.590;2024-01-27T15:19:15;5.50;16.60
10304;DHT22;5197;48.152;8.590;2024-01-27T15:21:42;5.40;16.80
10304;DHT22;5197;48.152;8.590;2024-01-27T15:24:09;5.30;17.20
10304;DHT22;5197;48.152;8.590;2024-01-27T15:26:36;5.30;17.20
10304;DHT22;5197;48.152;8.590;2024-01-27T15:29:04;5.30;17.40
10304;DHT22;5197;48.152;8.590;2024-01-27T15:31:31;5.20;17.00
10304;DHT22;5197;48.152;8.590;2024-01-27T15:33:58;5.20;17.30
10304;DHT22;5197;48.152;8.590;2024-01-27T15:36:25;5.10;16.50
10304;DHT22;5197;48.152;8.590;2024-01-27T15:38:52;5.00;16.50
10304;DHT22;5197;48.152;8.590;2024-01-27T15:41:19;4.90;16.70
10304;DHT22;5197;48.152;8.590;2024-01-27T15:43:46;4.90;16.50
10304;DHT22;5197;48.152;8.590;2024-01-27T15:46:15;4.80;16.40
10304;DHT22;5197;48.152;8.590;2024-01-27T15:48:42;4.80;16.90
10304;DHT22;5197;48.152;8.590;2024-01-27T15:51:09;4.70;16.80
10304;DHT22;5197;48.152;8.590;2024-01-27T15:53:37;4.70;17.00
10304;DHT22;5197;48.152;8.590;2024-01-27T15:56:04;4.60;16.80
10304;DHT22;5197;48.152;8.590;2024-01-27T15:58:32;4.60;16.50
10304;DHT22;5197;48.152;8.590;2024-01-27T16:00:59;4.40;16.40
10304;DHT22;5197;48.152;8.590;2024-01-27T16:03:26;4.40;16.70
10304;DHT22;5197;48.152;8.590;2024-01-27T16:05:53;4.30;16.90